»·PEaware :: SWA1471 KLAX-KLAS

SWA1471 :: KLAX-KLAS

FLIGHT INFORMATION

Flight Status: Arrived
Operator:
Southwest Airlines
More flights by this operator :: More flights under this callsign
Pilot: Anonymous 34646 (34646)
Aircraft: BOEING 737-700
(B737)
More flights by this aircraft type
Origin: KLAX Los Angeles Intl
United States
Destination: KLAS Harry Reid Intl
United States
More flights between these airports :: More routes between these airports
Route: OSHNN9 MISEN RNDRZ1
File this flight plan on PilotEdge
Remarks: RMK / SIMBRIEF
Altitude:
(Current/Filed)
29,000ft
Speed:
(Current/Filed)
447kts
Departed: 06-May-21 09:05 PM
Arrived: 06-May-21 09:53 PM
Distance/Time
Traveled:
205nm/0:47
Distance/Time
To Go:
Arrived

Flight Plot

Page will automatically refresh every two minutes.

Flight plan parsing failed; only flown route is shown


Map Options




Map Legend


Flown Route
Filed Route
Departure Airport
Arrival Airport
Navaid (VOR, NDB)
Fix

Horizontal Profiles

Position Reports

Time Latitude Longitude Heading Altitude Ground
Speed
06-May-21 20:44 33.947349 -118.401998 103 134ft 0kts
06-May-21 20:45 33.947349 -118.401998 103 134ft 0kts
06-May-21 20:46 33.947349 -118.401998 103 134ft 0kts
06-May-21 20:47 33.947349 -118.401998 103 134ft 0kts
06-May-21 20:48 33.947349 -118.401998 103 134ft 0kts
06-May-21 20:49 33.947349 -118.401998 103 134ft 0kts
06-May-21 20:50 33.947349 -118.401998 103 134ft 0kts
06-May-21 20:52 33.947349 -118.401998 103 134ft 0kts
06-May-21 20:53 33.947349 -118.401998 103 134ft 0kts
06-May-21 20:54 33.947349 -118.401998 103 134ft 0kts
06-May-21 20:55 33.947349 -118.401998 103 134ft 0kts
06-May-21 20:56 33.947349 -118.401998 103 134ft 0kts
06-May-21 20:57 33.947364 -118.402074 103 134ft 2kts
06-May-21 20:58 33.947488 -118.402712 102 134ft 0kts
06-May-21 20:59 33.947488 -118.402712 102 134ft 0kts
06-May-21 21:00 33.947488 -118.402712 102 134ft 0kts
06-May-21 21:01 33.947488 -118.402712 102 134ft 0kts
06-May-21 21:02 33.947676 -118.402676 333 134ft 4kts
06-May-21 21:03 33.949038 -118.402294 79 134ft 2kts
06-May-21 21:04 33.949412 -118.401818 7 134ft 8kts
06-May-21 21:05 33.949174 -118.411615 262 134ft 117kts
06-May-21 21:06 33.943996 -118.461987 262 2246ft 181kts
06-May-21 21:07 33.941153 -118.530725 264 5094ft 226kts
06-May-21 21:08 33.931941 -118.616687 248 8342ft 279kts
06-May-21 21:09 33.863410 -118.649226 164 11643ft 320kts
06-May-21 21:10 33.781574 -118.589468 146 14503ft 359kts
06-May-21 21:11 33.701284 -118.516897 129 15817ft 367kts
06-May-21 21:12 33.662090 -118.402120 111 16943ft 376kts
06-May-21 21:13 33.644089 -118.277229 91 18869ft 391kts
06-May-21 21:14 33.674167 -118.151647 47 21619ft 421kts
06-May-21 21:15 33.770866 -118.066521 36 24018ft 441kts
06-May-21 21:16 33.870611 -117.976951 36 26229ft 455kts
06-May-21 21:16 33.956014 -117.899367 37 27853ft 466kts
06-May-21 21:17 34.060337 -117.803889 38 29114ft 474kts
06-May-21 21:19 34.163324 -117.668799 52 29128ft 469kts
06-May-21 21:20 34.245426 -117.545914 51 29118ft 468kts
06-May-21 21:20 34.313737 -117.443877 51 29104ft 468kts
06-May-21 21:22 34.409417 -117.301148 52 29084ft 468kts
06-May-21 21:23 34.490898 -117.178412 52 29090ft 467kts
06-May-21 21:23 34.558680 -117.076381 51 29112ft 467kts
06-May-21 21:24 34.642006 -116.955400 51 29098ft 466kts
06-May-21 21:26 34.738988 -116.814247 51 29049ft 466kts
06-May-21 21:26 34.807618 -116.713273 51 29021ft 466kts
06-May-21 21:27 34.898518 -116.601000 38 29012ft 467kts
06-May-21 21:28 35.000443 -116.503134 38 29013ft 467kts
06-May-21 21:29 35.101336 -116.404138 41 28491ft 457kts
06-May-21 21:30 35.189109 -116.291849 47 25664ft 450kts
06-May-21 21:31 35.271739 -116.181597 49 24076ft 436kts
06-May-21 21:32 35.353203 -116.069992 49 23998ft 441kts
06-May-21 21:33 35.435038 -115.957379 49 23990ft 442kts
06-May-21 21:34 35.512785 -115.849768 49 20182ft 408kts
06-May-21 21:35 35.585587 -115.748889 50 17759ft 363kts
06-May-21 21:36 35.651346 -115.660080 49 16757ft 339kts
06-May-21 21:37 35.713906 -115.575414 48 15757ft 332kts
06-May-21 21:38 35.790260 -115.511973 30 14755ft 330kts
06-May-21 21:39 35.869417 -115.456888 31 13756ft 324kts
06-May-21 21:40 35.947395 -115.402299 31 12820ft 319kts
06-May-21 21:41 36.014661 -115.337005 72 11602ft 305kts
06-May-21 21:42 36.009888 -115.236207 98 10440ft 291kts
06-May-21 21:43 36.003865 -115.134859 98 8415ft 298kts
06-May-21 21:44 35.998597 -115.036292 95 7900ft 268kts
06-May-21 21:45 35.998834 -114.950476 96 7106ft 233kts
06-May-21 21:46 36.038817 -114.903907 349 5970ft 216kts
06-May-21 21:47 36.072086 -114.946861 272 4979ft 171kts
06-May-21 21:48 36.073739 -115.004231 265 4093ft 166kts
06-May-21 21:49 36.073722 -115.059428 265 3260ft 148kts
06-May-21 21:50 36.073658 -115.108418 268 2492ft 142kts
06-May-21 21:51 36.073630 -115.145713 270 2189ft 49kts
06-May-21 21:52 36.075218 -115.151235 331 2189ft 0kts
06-May-21 21:53 36.075219 -115.151236 331 2189ft 0kts
06-May-21 21:54 36.075220 -115.151237 331 2189ft 0kts
06-May-21 21:55 36.076351 -115.151645 41 2189ft 10kts
06-May-21 21:56 36.078945 -115.151106 359 2189ft 9kts
06-May-21 21:57 36.081756 -115.150322 45 2189ft 8kts
06-May-21 21:58 36.082705 -115.148883 54 2189ft 0kts
06-May-21 21:59 36.082705 -115.148883 54 2189ft 0kts
06-May-21 22:00 36.082705 -115.148883 54 2189ft 0kts

Navigation Log

Ident Type
Flight plan parsing failed, navigation log unavailable